createdAt,value
2023-02-07T00:01:20.476Z,96.95
2023-02-07T00:03:47.989Z,97.83
2023-02-07T00:06:18.328Z,97.05
2023-02-07T00:08:46.421Z,96.83
2023-02-07T00:11:16.888Z,95.34
2023-02-07T00:13:44.948Z,97.42
2023-02-07T00:16:12.919Z,98.29
2023-02-07T00:18:41.078Z,98.60
2023-02-07T00:21:09.856Z,99.08
2023-02-07T00:23:38.734Z,98.09
2023-02-07T00:26:07.775Z,97.99
2023-02-07T00:28:38.259Z,96.36
2023-02-07T00:31:07.481Z,96.48
2023-02-07T00:33:35.811Z,96.01
2023-02-07T00:36:05.152Z,97.93
2023-02-07T00:41:46.123Z,98.38
2023-02-07T00:44:13.766Z,97.65
2023-02-07T00:46:41.322Z,96.50
2023-02-07T00:49:40.912Z,96.29
2023-02-07T00:52:08.337Z,98.95
2023-02-07T00:57:25.699Z,98.28
2023-02-07T00:59:53.206Z,97.44
2023-02-07T01:02:20.695Z,97.33
2023-02-07T01:04:48.311Z,96.79
2023-02-07T01:07:15.791Z,96.40
2023-02-07T01:09:43.521Z,97.97
2023-02-07T01:15:12.698Z,97.29
2023-02-07T01:17:40.541Z,97.87
2023-02-07T01:20:09.243Z,97.48
2023-02-07T01:22:37.843Z,96.62
2023-02-07T01:25:06.121Z,97.14
2023-02-07T01:27:36.420Z,97.81
2023-02-07T01:30:04.741Z,97.02
2023-02-07T01:32:34.593Z,95.40
2023-02-07T01:35:03.423Z,95.06
2023-02-07T01:37:33.097Z,95.76
2023-02-07T01:40:00.605Z,96.47
2023-02-07T01:45:33.816Z,94.97
2023-02-07T01:48:04.693Z,94.63
2023-02-07T01:50:32.558Z,93.72
2023-02-07T01:53:01.582Z,94.17
2023-02-07T01:55:31.166Z,94.55
2023-02-07T01:57:59.139Z,95.20
2023-02-07T02:00:26.818Z,97.28
2023-02-07T02:02:54.350Z,97.23
2023-02-07T02:05:23.551Z,97.36
2023-02-07T02:07:51.102Z,95.34
2023-02-07T02:10:20.467Z,94.47
2023-02-07T02:16:06.976Z,98.00
2023-02-07T02:18:51.443Z,97.95
2023-02-07T02:25:14.771Z,97.11
2023-02-07T02:30:59.127Z,95.11
2023-02-07T02:33:37.715Z,95.20
2023-02-07T02:36:11.213Z,95.47
2023-02-07T02:38:44.856Z,95.28
2023-02-07T02:41:15.496Z,93.89
2023-02-07T02:43:46.372Z,94.40
2023-02-07T02:49:15.983Z,94.84
2023-02-07T02:51:43.508Z,95.89
2023-02-07T02:57:30.770Z,94.89
2023-02-07T03:00:17.523Z,95.29
2023-02-07T03:02:53.219Z,96.51
2023-02-07T03:05:32.009Z,95.42
2023-02-07T03:08:05.496Z,94.62
2023-02-07T03:13:50.756Z,93.55
2023-02-07T03:16:21.710Z,92.78
2023-02-07T03:18:55.146Z,93.76
2023-02-07T03:21:28.248Z,93.97
2023-02-07T03:23:58.371Z,94.45
2023-02-07T03:26:28.866Z,93.61
2023-02-07T03:28:57.649Z,93.54
2023-02-07T03:31:26.440Z,93.27
2023-02-07T03:33:57.090Z,94.85
2023-02-07T03:36:29.959Z,95.92
2023-02-07T03:38:57.466Z,95.41
2023-02-07T03:41:29.427Z,95.05
2023-02-07T03:43:58.812Z,96.48
2023-02-07T03:46:26.322Z,95.02
2023-02-07T03:48:53.707Z,94.74
2023-02-07T03:51:21.150Z,93.69
2023-02-07T03:53:49.899Z,93.12
2023-02-07T03:56:17.306Z,93.38
2023-02-07T03:58:44.952Z,93.16
2023-02-07T04:01:12.643Z,94.25
2023-02-07T04:03:43.164Z,95.99
2023-02-07T04:06:10.744Z,96.22
2023-02-07T04:08:38.430Z,96.76
2023-02-07T04:11:07.356Z,97.14
2023-02-07T04:13:34.757Z,96.42
2023-02-07T04:16:02.572Z,95.37
2023-02-07T04:18:30.024Z,95.53
2023-02-07T04:21:01.691Z,96.34
2023-02-07T04:23:29.184Z,97.93
2023-02-07T04:29:00.662Z,95.90
2023-02-07T04:31:28.463Z,94.90
2023-02-07T04:33:55.915Z,95.36
2023-02-07T04:36:23.735Z,96.08
2023-02-07T04:38:51.233Z,95.53
2023-02-07T04:41:56.256Z,94.97
2023-02-07T04:44:25.036Z,93.90
2023-02-07T04:46:52.497Z,94.40
2023-02-07T04:49:20.026Z,94.57
2023-02-07T04:54:50.348Z,94.99
2023-02-07T04:57:17.834Z,96.48
2023-02-07T04:59:46.626Z,96.41
2023-02-07T05:02:14.213Z,95.61
2023-02-07T05:04:41.681Z,95.12
2023-02-07T05:07:09.190Z,95.67
2023-02-07T05:09:36.592Z,96.87
2023-02-07T05:12:04.161Z,97.00
2023-02-07T05:14:31.570Z,96.27
2023-02-07T05:17:00.348Z,94.46
2023-02-07T05:19:27.812Z,93.77
2023-02-07T05:24:57.341Z,96.29
2023-02-07T05:27:24.841Z,96.43
2023-02-07T05:33:07.327Z,97.79
2023-02-07T05:38:33.359Z,97.85
2023-02-07T05:41:01.030Z,97.64
2023-02-07T05:43:28.506Z,98.82
2023-02-07T05:45:56.034Z,98.87
2023-02-07T05:48:24.814Z,99.36
2023-02-07T05:50:52.241Z,97.88
2023-02-07T05:53:19.689Z,97.97
2023-02-07T05:55:47.091Z,97.75
2023-02-07T06:01:13.424Z,95.69
2023-02-07T06:03:42.269Z,95.78
2023-02-07T06:06:09.717Z,94.90
2023-02-07T06:08:37.142Z,94.76
2023-02-07T06:11:04.774Z,93.70
2023-02-07T06:13:32.263Z,94.13
2023-02-07T06:15:59.982Z,94.89
2023-02-07T06:18:27.453Z,95.21
2023-02-07T06:20:56.218Z,95.63
2023-02-07T06:26:14.513Z,94.54
2023-02-07T06:31:30.321Z,93.96
2023-02-07T06:33:57.736Z,93.12
2023-02-07T06:36:26.503Z,93.71
2023-02-07T06:38:55.431Z,95.60
2023-02-07T06:41:23.023Z,95.86
2023-02-07T06:43:50.463Z,96.19
2023-02-07T06:46:18.012Z,96.04
2023-02-07T06:48:45.494Z,96.02
2023-02-07T06:51:13.170Z,94.83
2023-02-07T06:53:41.909Z,95.25
2023-02-07T06:56:09.318Z,94.99
2023-02-07T06:58:36.764Z,95.20
2023-02-07T07:01:05.169Z,94.78
2023-02-07T07:03:32.634Z,94.56
2023-02-07T07:06:00.283Z,93.87
2023-02-07T07:08:28.316Z,94.34
2023-02-07T07:13:52.679Z,95.64
2023-02-07T07:16:20.200Z,95.54
2023-02-07T07:18:47.691Z,96.55
2023-02-07T07:21:15.342Z,97.42
2023-02-07T07:23:42.744Z,97.17
2023-02-07T07:26:10.389Z,96.75
2023-02-07T07:28:37.881Z,96.39
2023-02-07T07:31:08.429Z,95.29
2023-02-07T07:33:36.141Z,96.30
2023-02-07T07:36:04.522Z,97.30
2023-02-07T07:41:34.281Z,96.23
2023-02-07T07:44:01.704Z,95.54
2023-02-07T07:46:30.607Z,94.63
2023-02-07T07:48:58.195Z,93.73
2023-02-07T07:51:41.038Z,93.70
2023-02-07T07:54:08.525Z,92.43
2023-02-07T07:59:38.307Z,93.74
2023-02-07T08:02:07.459Z,93.68
2023-02-07T08:04:34.960Z,93.58
2023-02-07T08:07:02.405Z,93.92
2023-02-07T08:12:18.319Z,95.87
2023-02-07T08:14:45.731Z,96.78
2023-02-07T08:17:14.487Z,97.15
2023-02-07T08:19:41.930Z,97.90
2023-02-07T08:22:09.372Z,98.23
2023-02-07T08:24:36.835Z,98.58
2023-02-07T08:27:04.363Z,99.25
2023-02-07T08:29:31.895Z,99.31
2023-02-07T08:31:59.382Z,99.33
2023-02-07T08:34:28.792Z,98.50
2023-02-07T08:37:27.977Z,97.83
2023-02-07T08:39:55.717Z,98.54
2023-02-07T08:42:23.194Z,98.16
2023-02-07T08:44:52.017Z,96.76
2023-02-07T08:47:19.672Z,97.58
2023-02-07T08:49:48.430Z,97.83
2023-02-07T08:52:15.916Z,97.67
2023-02-07T08:54:43.412Z,96.77
2023-02-07T08:57:10.859Z,97.80
2023-02-07T08:59:38.270Z,97.84
2023-02-07T09:05:06.050Z,96.56
2023-02-07T09:07:33.729Z,95.11
2023-02-07T09:10:02.655Z,95.36
2023-02-07T09:12:30.969Z,95.96
2023-02-07T09:14:58.398Z,95.80
2023-02-07T09:17:50.960Z,95.68
2023-02-07T09:20:20.060Z,96.37
2023-02-07T09:23:19.700Z,94.55
2023-02-07T09:25:48.503Z,95.23
2023-02-07T09:28:16.087Z,93.56
2023-02-07T09:30:44.309Z,91.88
2023-02-07T09:33:12.577Z,92.25
2023-02-07T09:35:43.574Z,91.99
2023-02-07T09:38:13.683Z,90.16
2023-02-07T09:40:41.573Z,90.53
2023-02-07T09:43:38.391Z,88.96
2023-02-07T09:46:08.600Z,88.83
2023-02-07T09:48:45.704Z,87.50
2023-02-07T09:51:19.669Z,87.46
2023-02-07T09:53:51.218Z,87.01
2023-02-07T09:59:26.063Z,85.98
2023-02-07T10:01:57.319Z,86.74
2023-02-07T10:04:31.107Z,86.84
2023-02-07T10:07:00.686Z,87.93
2023-02-07T10:09:29.948Z,88.43
2023-02-07T10:12:02.051Z,86.58
2023-02-07T10:14:41.267Z,83.13
2023-02-07T10:17:31.603Z,83.52
2023-02-07T10:20:07.183Z,86.33
2023-02-07T10:22:44.316Z,83.73
2023-02-07T10:25:22.743Z,85.23
2023-02-07T10:27:59.053Z,86.16
2023-02-07T10:30:28.543Z,84.15
2023-02-07T10:33:01.387Z,82.01
2023-02-07T10:35:34.485Z,81.57
2023-02-07T10:38:04.648Z,81.51
2023-02-07T10:40:40.048Z,80.56
2023-02-07T10:43:28.280Z,78.77
2023-02-07T10:46:04.493Z,78.01
2023-02-07T10:51:37.928Z,80.09
2023-02-07T10:54:08.792Z,78.11
2023-02-07T10:59:50.515Z,77.33
2023-02-07T11:05:38.312Z,74.84
2023-02-07T11:08:10.101Z,72.80
2023-02-07T11:11:59.755Z,75.58
2023-02-07T11:14:28.358Z,69.50
2023-02-07T11:16:56.604Z,67.87
2023-02-07T11:19:25.654Z,66.27
2023-02-07T11:21:54.959Z,65.98
2023-02-07T11:24:28.242Z,64.98
2023-02-07T11:26:58.584Z,68.58
2023-02-07T11:29:27.636Z,71.29
2023-02-07T11:31:57.816Z,65.80
2023-02-07T11:34:41.421Z,64.13
2023-02-07T11:37:21.284Z,59.94
2023-02-07T11:39:52.127Z,59.44
2023-02-07T11:42:21.979Z,57.74
2023-02-07T11:44:53.575Z,55.33
2023-02-07T11:47:24.381Z,53.79
2023-02-07T11:49:54.460Z,51.97
2023-02-07T11:52:22.330Z,51.76
2023-02-07T11:54:52.712Z,52.25
2023-02-07T11:57:20.958Z,55.43
2023-02-07T11:59:56.444Z,52.96
2023-02-07T12:02:25.267Z,51.83
2023-02-07T12:04:54.536Z,52.63
2023-02-07T12:07:25.966Z,54.19
2023-02-07T12:12:57.450Z,51.39
2023-02-07T12:18:30.823Z,64.10
2023-02-07T12:21:03.377Z,65.98
2023-02-07T12:23:43.264Z,65.55
2023-02-07T12:26:18.755Z,61.28
2023-02-07T12:28:58.770Z,63.78
2023-02-07T12:32:06.174Z,64.18
2023-02-07T12:34:41.999Z,64.02
2023-02-07T12:37:15.213Z,67.69
2023-02-07T12:39:47.062Z,65.35
2023-02-07T12:45:05.527Z,65.97
2023-02-07T12:50:54.310Z,66.86
2023-02-07T12:53:38.208Z,66.30
2023-02-07T12:56:13.202Z,64.20
2023-02-07T12:58:48.795Z,65.00
2023-02-07T13:01:22.055Z,64.84
2023-02-07T13:04:11.848Z,64.34
2023-02-07T13:06:45.630Z,63.55
2023-02-07T13:09:17.818Z,63.71
2023-02-07T13:11:49.127Z,63.80
2023-02-07T13:14:26.413Z,63.48
2023-02-07T13:17:03.563Z,63.62
2023-02-07T13:19:35.753Z,64.55
2023-02-07T13:22:06.840Z,65.20
2023-02-07T13:24:36.518Z,65.47
2023-02-07T13:27:06.972Z,65.19
2023-02-07T13:29:36.466Z,66.68
2023-02-07T13:32:12.200Z,65.64
2023-02-07T13:34:45.206Z,66.62
2023-02-07T13:37:16.990Z,65.65
2023-02-07T13:39:49.584Z,65.55
2023-02-07T13:42:22.648Z,65.67
2023-02-07T13:44:57.493Z,65.24
2023-02-07T13:47:36.185Z,66.06
2023-02-07T13:50:12.186Z,64.29
2023-02-07T13:52:44.422Z,63.85
2023-02-07T13:55:21.564Z,64.21
2023-02-07T13:58:06.695Z,65.47
2023-02-07T14:00:37.114Z,64.56
2023-02-07T14:03:08.939Z,64.37
2023-02-07T14:05:40.462Z,63.40
2023-02-07T14:08:24.646Z,64.24
2023-02-07T14:14:04.938Z,63.45
2023-02-07T14:16:53.633Z,64.58
2023-02-07T14:19:51.050Z,63.93
2023-02-07T14:22:20.876Z,64.56
2023-02-07T14:24:50.252Z,63.12
2023-02-07T14:27:30.027Z,62.83
2023-02-07T14:30:30.451Z,63.63
2023-02-07T14:33:13.674Z,62.92
2023-02-07T14:36:02.678Z,64.50
2023-02-07T14:38:33.774Z,63.55
2023-02-07T14:41:11.202Z,64.63
2023-02-07T14:43:45.511Z,64.47
2023-02-07T14:46:16.334Z,66.68
2023-02-07T14:49:21.365Z,67.16
2023-02-07T14:51:51.616Z,68.13
2023-02-07T14:54:24.540Z,68.46
2023-02-07T14:57:03.243Z,68.88
2023-02-07T14:59:35.440Z,68.35
2023-02-07T15:02:31.481Z,68.46
2023-02-07T15:04:59.296Z,69.31
2023-02-07T15:07:28.078Z,69.72
2023-02-07T15:09:55.469Z,72.32
2023-02-07T15:12:27.548Z,70.82
2023-02-07T15:14:57.624Z,70.99
2023-02-07T15:17:33.422Z,70.71
2023-02-07T15:20:03.767Z,70.19
2023-02-07T15:22:32.562Z,70.46
2023-02-07T15:25:00.516Z,72.03
2023-02-07T15:27:30.179Z,71.97
2023-02-07T15:29:59.964Z,72.37
2023-02-07T15:32:30.765Z,72.93
2023-02-07T15:34:58.593Z,72.43
2023-02-07T15:37:27.622Z,72.71
2023-02-07T15:42:54.219Z,73.46
2023-02-07T15:45:29.874Z,74.02
2023-02-07T15:47:58.807Z,73.18
2023-02-07T15:50:28.121Z,71.89
2023-02-07T15:52:57.262Z,72.22
2023-02-07T15:58:26.578Z,72.42
2023-02-07T16:04:09.635Z,73.21
2023-02-07T16:06:37.054Z,73.59
2023-02-07T16:09:05.241Z,73.29
2023-02-07T16:11:39.550Z,73.12
2023-02-07T16:14:18.160Z,74.46
2023-02-07T16:16:50.006Z,74.90
2023-02-07T16:19:18.964Z,75.70
2023-02-07T16:21:47.819Z,78.60
2023-02-07T16:24:17.580Z,79.02
2023-02-07T16:26:45.247Z,84.41
2023-02-07T16:32:02.894Z,85.26
2023-02-07T16:34:30.471Z,83.68
2023-02-07T16:36:57.934Z,83.62
2023-02-07T16:39:25.377Z,83.39
2023-02-07T16:41:56.149Z,83.90
2023-02-07T16:47:24.350Z,85.31
2023-02-07T16:49:51.840Z,85.65
2023-02-07T16:52:19.620Z,85.92
2023-02-07T16:54:47.653Z,85.85
2023-02-07T16:57:15.671Z,86.52
2023-02-07T16:59:43.449Z,86.87
2023-02-07T17:02:14.680Z,88.74
2023-02-07T17:07:45.797Z,90.17
2023-02-07T17:10:20.803Z,89.89
2023-02-07T17:12:48.711Z,89.84
2023-02-07T17:15:16.670Z,90.08
2023-02-07T17:17:44.098Z,90.83
2023-02-07T17:20:18.482Z,91.53
2023-02-07T17:22:48.270Z,91.34
2023-02-07T17:25:16.004Z,90.38
2023-02-07T17:27:43.513Z,90.69
2023-02-07T17:30:14.913Z,89.93
2023-02-07T17:32:42.627Z,89.91
2023-02-07T17:35:10.364Z,89.95
2023-02-07T17:37:37.799Z,89.35
2023-02-07T17:40:26.338Z,88.91
2023-02-07T17:42:54.101Z,89.33
2023-02-07T17:45:21.880Z,89.11
2023-02-07T17:47:49.442Z,89.29
2023-02-07T17:53:05.557Z,94.37
2023-02-07T17:55:34.870Z,94.97
2023-02-07T18:00:50.565Z,95.52
2023-02-07T18:03:18.194Z,93.92
2023-02-07T18:05:45.905Z,93.38
2023-02-07T18:08:14.940Z,93.30
2023-02-07T18:10:43.732Z,93.58
2023-02-07T18:13:11.266Z,93.65
2023-02-07T18:15:38.797Z,94.11
2023-02-07T18:18:06.528Z,93.35
2023-02-07T18:20:35.369Z,93.58
2023-02-07T18:23:07.510Z,92.91
2023-02-07T18:25:35.514Z,92.49
2023-02-07T18:31:11.305Z,91.46
2023-02-07T18:33:38.930Z,91.96
2023-02-07T18:36:07.512Z,91.80
2023-02-07T18:38:35.000Z,93.16
2023-02-07T18:41:09.776Z,93.90
2023-02-07T18:43:37.669Z,94.99
2023-02-07T18:46:09.911Z,95.28
2023-02-07T18:48:37.523Z,94.47
2023-02-07T18:51:06.519Z,95.19
2023-02-07T18:53:34.520Z,94.89
2023-02-07T18:56:08.427Z,94.53
2023-02-07T19:01:35.423Z,94.28
2023-02-07T19:04:02.981Z,94.69
2023-02-07T19:06:32.535Z,95.42
2023-02-07T19:11:50.794Z,95.30
2023-02-07T19:14:19.764Z,94.74
2023-02-07T19:16:49.376Z,94.59
2023-02-07T19:19:16.837Z,93.75
2023-02-07T19:21:44.844Z,92.88
2023-02-07T19:24:15.678Z,93.14
2023-02-07T19:26:43.659Z,92.86
2023-02-07T19:29:14.419Z,93.38
2023-02-07T19:31:43.427Z,93.02
2023-02-07T19:37:02.158Z,91.34
2023-02-07T19:39:29.622Z,91.42
2023-02-07T19:41:57.065Z,92.28
2023-02-07T19:44:24.571Z,92.89
2023-02-07T19:46:51.979Z,95.51
2023-02-07T19:49:19.397Z,97.16
2023-02-07T19:51:47.953Z,96.35
2023-02-07T19:54:18.179Z,95.73
2023-02-07T19:56:46.925Z,95.23
2023-02-07T19:59:14.337Z,94.78
2023-02-07T20:01:41.927Z,93.87
2023-02-07T20:04:09.458Z,93.59
2023-02-07T20:06:36.950Z,93.80
2023-02-07T20:09:06.580Z,93.28
2023-02-07T20:14:37.874Z,92.43
2023-02-07T20:17:05.381Z,92.42
2023-02-07T20:19:32.783Z,92.18
2023-02-07T20:22:00.345Z,92.98
2023-02-07T20:24:27.907Z,94.36
2023-02-07T20:26:55.546Z,93.32
2023-02-07T20:29:23.053Z,93.70
2023-02-07T20:31:51.951Z,92.63
2023-02-07T20:34:19.412Z,92.96
2023-02-07T20:36:46.884Z,93.09
2023-02-07T20:39:16.543Z,92.67
2023-02-07T20:41:46.024Z,93.97
2023-02-07T20:44:17.750Z,92.91
2023-02-07T20:46:46.549Z,92.62
2023-02-07T20:49:17.195Z,91.27
2023-02-07T20:51:45.240Z,91.65
2023-02-07T20:54:13.612Z,93.18
2023-02-07T20:56:41.058Z,94.30
2023-02-07T20:59:17.376Z,95.96
2023-02-07T21:01:45.293Z,95.84
2023-02-07T21:04:12.986Z,95.36
2023-02-07T21:06:43.511Z,94.93
2023-02-07T21:09:11.822Z,94.39
2023-02-07T21:12:03.254Z,94.66
2023-02-07T21:14:32.086Z,94.42
2023-02-07T21:17:01.536Z,94.05
2023-02-07T21:19:29.511Z,93.86
2023-02-07T21:21:58.437Z,93.86
2023-02-07T21:24:26.534Z,93.28
2023-02-07T21:26:55.062Z,92.56
2023-02-07T21:29:23.164Z,92.34
2023-02-07T21:31:52.040Z,93.30
2023-02-07T21:34:21.119Z,93.43
2023-02-07T21:36:49.491Z,92.77
2023-02-07T21:39:18.388Z,92.37
2023-02-07T21:41:47.245Z,91.07
2023-02-07T21:44:15.757Z,91.08
2023-02-07T21:46:45.875Z,91.47
2023-02-07T21:52:11.864Z,92.02
2023-02-07T21:54:40.718Z,92.31
2023-02-07T21:57:08.228Z,92.88
2023-02-07T21:59:35.824Z,91.96
2023-02-07T22:02:03.740Z,91.83
2023-02-07T22:04:31.362Z,90.83
2023-02-07T22:06:58.941Z,91.62
2023-02-07T22:09:26.373Z,91.87
2023-02-07T22:11:55.303Z,91.56
2023-02-07T22:14:25.981Z,92.07
2023-02-07T22:16:54.547Z,93.18
2023-02-07T22:19:22.653Z,93.65
2023-02-07T22:21:50.345Z,92.46
2023-02-07T22:24:19.103Z,92.86
2023-02-07T22:26:46.554Z,91.77
2023-02-07T22:29:15.346Z,92.69
2023-02-07T22:34:55.376Z,93.94
2023-02-07T22:37:22.831Z,93.90
2023-02-07T22:39:50.644Z,92.64
2023-02-07T22:42:18.087Z,92.98
2023-02-07T22:47:40.192Z,92.97
2023-02-07T22:50:07.952Z,92.23
2023-02-07T22:52:35.383Z,92.48
2023-02-07T22:55:02.790Z,91.80
2023-02-07T22:57:30.372Z,90.59
2023-02-07T23:00:00.574Z,92.08
2023-02-07T23:02:28.126Z,92.21
2023-02-07T23:04:57.017Z,92.06
2023-02-07T23:07:26.679Z,91.86
2023-02-07T23:09:54.446Z,91.25
2023-02-07T23:12:21.962Z,89.86
2023-02-07T23:14:49.599Z,90.31
2023-02-07T23:20:16.104Z,90.11
2023-02-07T23:25:47.260Z,91.73
2023-02-07T23:28:15.281Z,92.96
2023-02-07T23:30:43.317Z,93.06
2023-02-07T23:33:11.275Z,93.02
2023-02-07T23:38:38.992Z,91.22
2023-02-07T23:41:07.698Z,90.13
2023-02-07T23:43:35.178Z,90.86
2023-02-07T23:46:02.613Z,90.21
2023-02-07T23:48:30.282Z,89.29
2023-02-07T23:54:01.869Z,88.90
2023-02-07T23:56:29.359Z,88.92
2023-02-07T23:58:56.816Z,88.30
